OISL  Lar  Airport

Lar, Iran

Add Bookmark
ICAO OISL
IATA LRR
Type Airport
Status Operational
Latitude
27° 40' 28" N
27.674700
Longitude
54° 22' 59" E
54.383301
Local (GMT +4.5 ) UTC
May 27, 2016 09:01 am May 27, 2016 04:31
Sunrise-Sunset Local UTC
Begin Civil Twilight 05:30 am 01:00
Sunrise 05:56 am 01:26
Sunset 07:42 pm 15:12
End Civil Twilight 08:08 pm 15:38
VFR
VFR
MVFR
MVFR
IFR
IFR
LIFR
LIFR
Unknown
Unavailable

Current Weather

METAR Observed VFR
OISL 270400Z 28004KT CAVOK 27/04 Q1009 Fri, May 27, 2016 @ 04:00 UTC
(31 Minutes ago)
Visual Flight Rules
Wind Visibility Conditions
280° at 4 knots (7 kph) 10 km or more
  • No significant weather
Temperatures Readings Precipitation
Current Temp
27°C
81°F
Dewpoint
4°C
39°F
Humidity 23%
Altimeter 29.79" Hg
Sea Level Pressure 1,009 mb
Field Elevation
805 m
2,641 ft
None Recorded

Forecast Weather

TAF
TAF OISL 262315Z 2700/2806 28004MPS CAVOK
From To
Fri, May 27, 2016 @ 00:00 UTC Sat, May 28, 2016 @ 06:00 UTC
Wind Visibility Conditions
280° at 8 knots (15 kph) 10 km or more
  • No significant weather
-
-

CheckWX.com is intended as a tool to help pilots better visualize weather data. It is not intended as a substitute for an official weather briefing obtained from a Flight Service Station. CheckWX.com does not meet the FAA requirements for an official pre-flight weather briefing. Therefore, it's important that pilots still call and obtain an official FSS pre-flight weather briefing.

© 2007-2016 CheckWX.com
04:31:27 UTC